sensor_id;sensor_type;location;lat;lon;timestamp;P1;durP1;ratioP1;P2;durP2;ratioP2
14205;SDS011;7186;48.800;9.216;2022-10-16T00:00:51;2.33;;;1.90;;
14205;SDS011;7186;48.800;9.216;2022-10-16T00:03:17;4.33;;;2.67;;
14205;SDS011;7186;48.800;9.216;2022-10-16T00:05:43;2.40;;;1.90;;
14205;SDS011;7186;48.800;9.216;2022-10-16T00:08:09;3.27;;;2.10;;
14205;SDS011;7186;48.800;9.216;2022-10-16T00:10:34;2.27;;;2.03;;
14205;SDS011;7186;48.800;9.216;2022-10-16T00:13:00;3.07;;;2.33;;
14205;SDS011;7186;48.800;9.216;2022-10-16T00:15:25;3.00;;;2.17;;
14205;SDS011;7186;48.800;9.216;2022-10-16T00:17:50;3.07;;;2.23;;
14205;SDS011;7186;48.800;9.216;2022-10-16T00:20:15;2.83;;;2.20;;
14205;SDS011;7186;48.800;9.216;2022-10-16T00:22:41;5.80;;;2.60;;
14205;SDS011;7186;48.800;9.216;2022-10-16T00:25:06;3.73;;;2.60;;
14205;SDS011;7186;48.800;9.216;2022-10-16T00:27:31;3.40;;;2.60;;
14205;SDS011;7186;48.800;9.216;2022-10-16T00:29:56;3.97;;;2.37;;
14205;SDS011;7186;48.800;9.216;2022-10-16T00:32:22;2.40;;;2.20;;
14205;SDS011;7186;48.800;9.216;2022-10-16T00:34:47;3.03;;;2.23;;
14205;SDS011;7186;48.800;9.216;2022-10-16T00:37:12;3.90;;;2.40;;
14205;SDS011;7186;48.800;9.216;2022-10-16T00:39:37;2.57;;;2.00;;
14205;SDS011;7186;48.800;9.216;2022-10-16T00:42:03;4.27;;;2.53;;
14205;SDS011;7186;48.800;9.216;2022-10-16T00:49:51;2.20;;;2.03;;
14205;SDS011;7186;48.800;9.216;2022-10-16T00:52:18;2.57;;;2.00;;
14205;SDS011;7186;48.800;9.216;2022-10-16T00:54:43;3.03;;;2.30;;
14205;SDS011;7186;48.800;9.216;2022-10-16T00:57:10;2.93;;;2.33;;
14205;SDS011;7186;48.800;9.216;2022-10-16T00:59:36;4.10;;;2.50;;
14205;SDS011;7186;48.800;9.216;2022-10-16T01:02:02;5.33;;;2.60;;
14205;SDS011;7186;48.800;9.216;2022-10-16T01:04:30;4.70;;;2.23;;
14205;SDS011;7186;48.800;9.216;2022-10-16T01:09:42;2.40;;;2.20;;
14205;SDS011;7186;48.800;9.216;2022-10-16T01:12:16;2.87;;;2.20;;
14205;SDS011;7186;48.800;9.216;2022-10-16T01:14:54;2.63;;;2.43;;
14205;SDS011;7186;48.800;9.216;2022-10-16T01:17:25;4.27;;;2.40;;
14205;SDS011;7186;48.800;9.216;2022-10-16T01:20:00;3.67;;;2.40;;
14205;SDS011;7186;48.800;9.216;2022-10-16T01:22:34;4.73;;;2.20;;
14205;SDS011;7186;48.800;9.216;2022-10-16T01:25:02;4.80;;;2.07;;
14205;SDS011;7186;48.800;9.216;2022-10-16T01:27:30;2.93;;;2.40;;
14205;SDS011;7186;48.800;9.216;2022-10-16T01:30:04;2.40;;;2.20;;
14205;SDS011;7186;48.800;9.216;2022-10-16T01:35:05;3.30;;;2.00;;
14205;SDS011;7186;48.800;9.216;2022-10-16T01:37:40;2.90;;;2.20;;
14205;SDS011;7186;48.800;9.216;2022-10-16T01:40:10;2.90;;;2.23;;
14205;SDS011;7186;48.800;9.216;2022-10-16T01:42:37;3.40;;;2.37;;
14205;SDS011;7186;48.800;9.216;2022-10-16T01:45:04;3.40;;;2.70;;
14205;SDS011;7186;48.800;9.216;2022-10-16T01:47:31;3.27;;;2.37;;
14205;SDS011;7186;48.800;9.216;2022-10-16T01:49:57;2.77;;;2.20;;
14205;SDS011;7186;48.800;9.216;2022-10-16T01:52:23;3.90;;;2.50;;
14205;SDS011;7186;48.800;9.216;2022-10-16T01:54:50;2.77;;;2.43;;
14205;SDS011;7186;48.800;9.216;2022-10-16T01:57:17;3.13;;;2.60;;
14205;SDS011;7186;48.800;9.216;2022-10-16T01:59:45;6.47;;;2.60;;
14205;SDS011;7186;48.800;9.216;2022-10-16T02:02:11;4.13;;;2.50;;
14205;SDS011;7186;48.800;9.216;2022-10-16T02:04:38;2.70;;;2.10;;
14205;SDS011;7186;48.800;9.216;2022-10-16T02:07:04;3.53;;;2.20;;
14205;SDS011;7186;48.800;9.216;2022-10-16T02:09:30;6.80;;;2.30;;
14205;SDS011;7186;48.800;9.216;2022-10-16T02:11:57;3.80;;;2.67;;
14205;SDS011;7186;48.800;9.216;2022-10-16T02:14:25;3.73;;;2.40;;
14205;SDS011;7186;48.800;9.216;2022-10-16T02:16:51;2.97;;;2.27;;
14205;SDS011;7186;48.800;9.216;2022-10-16T02:19:17;4.43;;;2.20;;
14205;SDS011;7186;48.800;9.216;2022-10-16T02:21:57;6.83;;;2.77;;
14205;SDS011;7186;48.800;9.216;2022-10-16T02:24:30;2.83;;;1.93;;
14205;SDS011;7186;48.800;9.216;2022-10-16T02:26:59;2.70;;;2.23;;
14205;SDS011;7186;48.800;9.216;2022-10-16T02:29:26;4.73;;;2.40;;
14205;SDS011;7186;48.800;9.216;2022-10-16T02:31:58;5.30;;;2.40;;
14205;SDS011;7186;48.800;9.216;2022-10-16T02:34:25;2.60;;;2.40;;
14205;SDS011;7186;48.800;9.216;2022-10-16T02:36:51;2.40;;;2.20;;
14205;SDS011;7186;48.800;9.216;2022-10-16T02:39:17;3.67;;;2.53;;
14205;SDS011;7186;48.800;9.216;2022-10-16T02:41:43;4.13;;;2.47;;
14205;SDS011;7186;48.800;9.216;2022-10-16T02:44:08;4.40;;;2.40;;
14205;SDS011;7186;48.800;9.216;2022-10-16T02:46:33;6.33;;;2.80;;
14205;SDS011;7186;48.800;9.216;2022-10-16T02:48:58;3.37;;;2.23;;
14205;SDS011;7186;48.800;9.216;2022-10-16T02:51:24;2.83;;;2.47;;
14205;SDS011;7186;48.800;9.216;2022-10-16T02:53:49;3.87;;;2.70;;
14205;SDS011;7186;48.800;9.216;2022-10-16T02:56:14;4.70;;;3.33;;
14205;SDS011;7186;48.800;9.216;2022-10-16T02:58:39;3.90;;;2.37;;
14205;SDS011;7186;48.800;9.216;2022-10-16T03:01:05;4.00;;;2.40;;
14205;SDS011;7186;48.800;9.216;2022-10-16T03:03:30;3.07;;;2.37;;
14205;SDS011;7186;48.800;9.216;2022-10-16T03:05:55;4.13;;;2.33;;
14205;SDS011;7186;48.800;9.216;2022-10-16T03:08:20;4.37;;;2.10;;
14205;SDS011;7186;48.800;9.216;2022-10-16T03:10:48;3.77;;;2.20;;
14205;SDS011;7186;48.800;9.216;2022-10-16T03:13:14;3.03;;;1.90;;
14205;SDS011;7186;48.800;9.216;2022-10-16T03:15:39;5.70;;;2.40;;
14205;SDS011;7186;48.800;9.216;2022-10-16T03:18:04;3.73;;;2.43;;
14205;SDS011;7186;48.800;9.216;2022-10-16T03:20:29;2.50;;;2.30;;
14205;SDS011;7186;48.800;9.216;2022-10-16T03:22:54;3.60;;;2.13;;
14205;SDS011;7186;48.800;9.216;2022-10-16T03:25:20;3.20;;;2.03;;
14205;SDS011;7186;48.800;9.216;2022-10-16T03:27:45;4.07;;;2.33;;
14205;SDS011;7186;48.800;9.216;2022-10-16T03:30:10;2.60;;;2.33;;
14205;SDS011;7186;48.800;9.216;2022-10-16T03:32:35;4.63;;;2.30;;
14205;SDS011;7186;48.800;9.216;2022-10-16T03:35:00;6.50;;;2.50;;
14205;SDS011;7186;48.800;9.216;2022-10-16T03:37:26;4.63;;;2.47;;
14205;SDS011;7186;48.800;9.216;2022-10-16T03:39:51;3.97;;;2.50;;
14205;SDS011;7186;48.800;9.216;2022-10-16T03:42:16;4.90;;;2.40;;
14205;SDS011;7186;48.800;9.216;2022-10-16T03:44:42;3.40;;;2.70;;
14205;SDS011;7186;48.800;9.216;2022-10-16T03:47:07;5.77;;;2.30;;
14205;SDS011;7186;48.800;9.216;2022-10-16T03:49:32;5.50;;;2.80;;
14205;SDS011;7186;48.800;9.216;2022-10-16T03:51:57;3.47;;;2.53;;
14205;SDS011;7186;48.800;9.216;2022-10-16T03:54:22;4.13;;;2.30;;
14205;SDS011;7186;48.800;9.216;2022-10-16T03:56:48;4.03;;;2.60;;
14205;SDS011;7186;48.800;9.216;2022-10-16T03:59:13;2.47;;;2.27;;
14205;SDS011;7186;48.800;9.216;2022-10-16T04:01:38;3.63;;;2.60;;
14205;SDS011;7186;48.800;9.216;2022-10-16T04:04:03;2.63;;;2.43;;
14205;SDS011;7186;48.800;9.216;2022-10-16T04:06:29;3.57;;;2.53;;
14205;SDS011;7186;48.800;9.216;2022-10-16T04:08:54;4.03;;;2.57;;
14205;SDS011;7186;48.800;9.216;2022-10-16T04:11:19;3.67;;;2.50;;
14205;SDS011;7186;48.800;9.216;2022-10-16T04:13:44;3.73;;;2.37;;
14205;SDS011;7186;48.800;9.216;2022-10-16T04:16:09;5.83;;;3.33;;
14205;SDS011;7186;48.800;9.216;2022-10-16T04:18:35;6.70;;;2.93;;
14205;SDS011;7186;48.800;9.216;2022-10-16T04:21:04;5.80;;;2.70;;
14205;SDS011;7186;48.800;9.216;2022-10-16T04:23:29;5.47;;;2.40;;
14205;SDS011;7186;48.800;9.216;2022-10-16T04:25:54;3.03;;;2.47;;
14205;SDS011;7186;48.800;9.216;2022-10-16T04:28:19;7.73;;;3.43;;
14205;SDS011;7186;48.800;9.216;2022-10-16T04:30:45;3.97;;;2.60;;
14205;SDS011;7186;48.800;9.216;2022-10-16T04:33:10;2.90;;;2.50;;
14205;SDS011;7186;48.800;9.216;2022-10-16T04:35:35;11.37;;;2.80;;
14205;SDS011;7186;48.800;9.216;2022-10-16T04:38:00;3.30;;;2.47;;
14205;SDS011;7186;48.800;9.216;2022-10-16T04:40:25;4.97;;;3.00;;
14205;SDS011;7186;48.800;9.216;2022-10-16T04:42:51;5.87;;;2.90;;
14205;SDS011;7186;48.800;9.216;2022-10-16T04:45:16;3.83;;;2.70;;
14205;SDS011;7186;48.800;9.216;2022-10-16T04:47:41;4.63;;;2.93;;
14205;SDS011;7186;48.800;9.216;2022-10-16T04:50:06;3.53;;;2.77;;
14205;SDS011;7186;48.800;9.216;2022-10-16T04:52:32;5.53;;;2.70;;
14205;SDS011;7186;48.800;9.216;2022-10-16T04:54:57;8.03;;;2.97;;
14205;SDS011;7186;48.800;9.216;2022-10-16T04:57:26;3.67;;;2.47;;
14205;SDS011;7186;48.800;9.216;2022-10-16T04:59:51;5.80;;;2.40;;
14205;SDS011;7186;48.800;9.216;2022-10-16T05:02:17;3.20;;;2.67;;
14205;SDS011;7186;48.800;9.216;2022-10-16T05:04:42;2.90;;;2.40;;
14205;SDS011;7186;48.800;9.216;2022-10-16T05:07:07;5.03;;;2.60;;
14205;SDS011;7186;48.800;9.216;2022-10-16T05:09:32;2.97;;;2.33;;
14205;SDS011;7186;48.800;9.216;2022-10-16T05:11:57;3.33;;;2.50;;
14205;SDS011;7186;48.800;9.216;2022-10-16T05:14:23;3.73;;;2.50;;
14205;SDS011;7186;48.800;9.216;2022-10-16T05:16:48;4.00;;;2.60;;
14205;SDS011;7186;48.800;9.216;2022-10-16T05:19:13;5.70;;;2.70;;
14205;SDS011;7186;48.800;9.216;2022-10-16T05:21:39;4.57;;;2.40;;
14205;SDS011;7186;48.800;9.216;2022-10-16T05:24:04;3.13;;;2.33;;
14205;SDS011;7186;48.800;9.216;2022-10-16T05:26:29;3.87;;;2.63;;
14205;SDS011;7186;48.800;9.216;2022-10-16T05:28:55;6.27;;;2.50;;
14205;SDS011;7186;48.800;9.216;2022-10-16T05:31:20;4.03;;;2.70;;
14205;SDS011;7186;48.800;9.216;2022-10-16T05:33:45;3.30;;;2.30;;
14205;SDS011;7186;48.800;9.216;2022-10-16T05:36:10;3.27;;;2.87;;
14205;SDS011;7186;48.800;9.216;2022-10-16T05:38:36;5.93;;;2.73;;
14205;SDS011;7186;48.800;9.216;2022-10-16T05:41:02;6.27;;;2.57;;
14205;SDS011;7186;48.800;9.216;2022-10-16T05:43:28;3.27;;;2.50;;
14205;SDS011;7186;48.800;9.216;2022-10-16T05:45:56;3.27;;;2.23;;
14205;SDS011;7186;48.800;9.216;2022-10-16T05:48:22;4.57;;;2.70;;
14205;SDS011;7186;48.800;9.216;2022-10-16T05:50:48;3.50;;;2.33;;
14205;SDS011;7186;48.800;9.216;2022-10-16T05:53:13;4.10;;;2.27;;
14205;SDS011;7186;48.800;9.216;2022-10-16T05:55:41;3.90;;;2.63;;
14205;SDS011;7186;48.800;9.216;2022-10-16T05:58:06;3.73;;;2.30;;
14205;SDS011;7186;48.800;9.216;2022-10-16T06:00:32;2.47;;;2.10;;
14205;SDS011;7186;48.800;9.216;2022-10-16T06:02:57;6.37;;;3.10;;
14205;SDS011;7186;48.800;9.216;2022-10-16T06:05:22;4.63;;;2.60;;
14205;SDS011;7186;48.800;9.216;2022-10-16T06:07:47;3.90;;;2.50;;
14205;SDS011;7186;48.800;9.216;2022-10-16T06:10:12;4.60;;;2.40;;
14205;SDS011;7186;48.800;9.216;2022-10-16T06:12:38;4.10;;;2.57;;
14205;SDS011;7186;48.800;9.216;2022-10-16T06:15:03;5.43;;;2.30;;
14205;SDS011;7186;48.800;9.216;2022-10-16T06:17:29;7.20;;;2.53;;
14205;SDS011;7186;48.800;9.216;2022-10-16T06:19:55;2.60;;;2.10;;
14205;SDS011;7186;48.800;9.216;2022-10-16T06:22:20;2.67;;;2.33;;
14205;SDS011;7186;48.800;9.216;2022-10-16T06:24:45;2.80;;;2.43;;
14205;SDS011;7186;48.800;9.216;2022-10-16T06:27:12;5.13;;;2.70;;
14205;SDS011;7186;48.800;9.216;2022-10-16T06:29:38;3.33;;;2.43;;
14205;SDS011;7186;48.800;9.216;2022-10-16T06:32:03;5.03;;;2.37;;
14205;SDS011;7186;48.800;9.216;2022-10-16T06:34:28;2.80;;;2.43;;
14205;SDS011;7186;48.800;9.216;2022-10-16T06:36:53;3.73;;;2.77;;
14205;SDS011;7186;48.800;9.216;2022-10-16T06:39:19;3.13;;;2.40;;
14205;SDS011;7186;48.800;9.216;2022-10-16T06:41:44;3.50;;;2.40;;
14205;SDS011;7186;48.800;9.216;2022-10-16T06:44:09;6.37;;;2.70;;
14205;SDS011;7186;48.800;9.216;2022-10-16T06:46:34;5.53;;;2.53;;
14205;SDS011;7186;48.800;9.216;2022-10-16T06:48:59;4.10;;;2.43;;
14205;SDS011;7186;48.800;9.216;2022-10-16T06:51:25;5.13;;;2.30;;
14205;SDS011;7186;48.800;9.216;2022-10-16T06:53:54;3.67;;;2.40;;
14205;SDS011;7186;48.800;9.216;2022-10-16T06:56:22;5.80;;;2.73;;
14205;SDS011;7186;48.800;9.216;2022-10-16T06:58:48;6.83;;;2.63;;
14205;SDS011;7186;48.800;9.216;2022-10-16T07:01:13;5.70;;;2.87;;
14205;SDS011;7186;48.800;9.216;2022-10-16T07:03:39;3.10;;;2.80;;
14205;SDS011;7186;48.800;9.216;2022-10-16T07:06:05;5.93;;;3.00;;
14205;SDS011;7186;48.800;9.216;2022-10-16T07:08:34;4.70;;;2.30;;
14205;SDS011;7186;48.800;9.216;2022-10-16T07:11:07;4.87;;;2.43;;
14205;SDS011;7186;48.800;9.216;2022-10-16T07:13:33;2.47;;;2.10;;
14205;SDS011;7186;48.800;9.216;2022-10-16T07:15:58;2.80;;;2.60;;
14205;SDS011;7186;48.800;9.216;2022-10-16T07:18:28;3.33;;;2.70;;
14205;SDS011;7186;48.800;9.216;2022-10-16T07:21:02;9.37;;;2.60;;
14205;SDS011;7186;48.800;9.216;2022-10-16T07:23:27;3.73;;;2.60;;
14205;SDS011;7186;48.800;9.216;2022-10-16T07:25:55;5.07;;;2.63;;
14205;SDS011;7186;48.800;9.216;2022-10-16T07:28:20;3.97;;;2.40;;
14205;SDS011;7186;48.800;9.216;2022-10-16T07:30:46;4.27;;;2.40;;
14205;SDS011;7186;48.800;9.216;2022-10-16T07:33:12;3.87;;;2.30;;
14205;SDS011;7186;48.800;9.216;2022-10-16T07:35:37;5.03;;;2.90;;
14205;SDS011;7186;48.800;9.216;2022-10-16T07:38:02;4.93;;;2.37;;
14205;SDS011;7186;48.800;9.216;2022-10-16T07:40:27;4.57;;;2.77;;
14205;SDS011;7186;48.800;9.216;2022-10-16T07:42:52;3.93;;;2.50;;
14205;SDS011;7186;48.800;9.216;2022-10-16T07:45:18;7.60;;;2.60;;
14205;SDS011;7186;48.800;9.216;2022-10-16T07:47:43;5.40;;;2.60;;
14205;SDS011;7186;48.800;9.216;2022-10-16T07:50:08;4.73;;;2.73;;
14205;SDS011;7186;48.800;9.216;2022-10-16T07:52:33;3.03;;;2.53;;
14205;SDS011;7186;48.800;9.216;2022-10-16T07:54:59;3.57;;;2.53;;
14205;SDS011;7186;48.800;9.216;2022-10-16T07:57:24;4.60;;;2.83;;
14205;SDS011;7186;48.800;9.216;2022-10-16T07:59:49;4.67;;;2.63;;
14205;SDS011;7186;48.800;9.216;2022-10-16T08:02:15;4.47;;;2.80;;
14205;SDS011;7186;48.800;9.216;2022-10-16T08:04:40;2.67;;;2.40;;
14205;SDS011;7186;48.800;9.216;2022-10-16T08:07:06;4.73;;;2.50;;
14205;SDS011;7186;48.800;9.216;2022-10-16T08:09:31;2.50;;;2.13;;
14205;SDS011;7186;48.800;9.216;2022-10-16T08:11:57;5.90;;;2.47;;
14205;SDS011;7186;48.800;9.216;2022-10-16T08:14:22;2.33;;;2.13;;
14205;SDS011;7186;48.800;9.216;2022-10-16T08:16:47;3.97;;;2.87;;
14205;SDS011;7186;48.800;9.216;2022-10-16T08:19:12;2.33;;;2.13;;
14205;SDS011;7186;48.800;9.216;2022-10-16T08:21:37;2.53;;;2.20;;
14205;SDS011;7186;48.800;9.216;2022-10-16T08:24:03;3.87;;;2.37;;
14205;SDS011;7186;48.800;9.216;2022-10-16T08:26:28;8.20;;;2.57;;
14205;SDS011;7186;48.800;9.216;2022-10-16T08:28:53;3.33;;;2.33;;
14205;SDS011;7186;48.800;9.216;2022-10-16T08:31:19;3.53;;;2.30;;
14205;SDS011;7186;48.800;9.216;2022-10-16T08:33:44;4.50;;;2.50;;
14205;SDS011;7186;48.800;9.216;2022-10-16T08:36:11;3.03;;;2.43;;
14205;SDS011;7186;48.800;9.216;2022-10-16T08:38:37;3.03;;;2.10;;
14205;SDS011;7186;48.800;9.216;2022-10-16T08:41:28;3.07;;;1.90;;
14205;SDS011;7186;48.800;9.216;2022-10-16T08:44:01;5.03;;;2.40;;
14205;SDS011;7186;48.800;9.216;2022-10-16T08:46:35;5.30;;;2.27;;
14205;SDS011;7186;48.800;9.216;2022-10-16T08:49:03;3.17;;;2.23;;
14205;SDS011;7186;48.800;9.216;2022-10-16T08:51:31;6.03;;;2.50;;
14205;SDS011;7186;48.800;9.216;2022-10-16T08:53:57;3.37;;;2.20;;
14205;SDS011;7186;48.800;9.216;2022-10-16T08:56:24;5.63;;;2.23;;
14205;SDS011;7186;48.800;9.216;2022-10-16T08:58:49;3.60;;;2.50;;
14205;SDS011;7186;48.800;9.216;2022-10-16T09:01:15;3.63;;;2.10;;
14205;SDS011;7186;48.800;9.216;2022-10-16T09:06:35;2.43;;;2.00;;
14205;SDS011;7186;48.800;9.216;2022-10-16T09:11:48;4.27;;;2.23;;
14205;SDS011;7186;48.800;9.216;2022-10-16T09:19:41;7.03;;;2.23;;
14205;SDS011;7186;48.800;9.216;2022-10-16T09:22:10;2.67;;;2.00;;
14205;SDS011;7186;48.800;9.216;2022-10-16T09:24:37;6.23;;;2.40;;
14205;SDS011;7186;48.800;9.216;2022-10-16T09:27:02;3.20;;;2.07;;
14205;SDS011;7186;48.800;9.216;2022-10-16T09:29:28;4.70;;;1.90;;
14205;SDS011;7186;48.800;9.216;2022-10-16T09:31:53;4.40;;;2.13;;
14205;SDS011;7186;48.800;9.216;2022-10-16T09:36:44;4.87;;;2.20;;
14205;SDS011;7186;48.800;9.216;2022-10-16T09:39:11;5.17;;;2.17;;
14205;SDS011;7186;48.800;9.216;2022-10-16T09:41:37;2.13;;;1.93;;
14205;SDS011;7186;48.800;9.216;2022-10-16T09:44:03;4.27;;;1.87;;
14205;SDS011;7186;48.800;9.216;2022-10-16T09:46:34;3.20;;;1.90;;
14205;SDS011;7186;48.800;9.216;2022-10-16T09:49:00;3.27;;;1.83;;
14205;SDS011;7186;48.800;9.216;2022-10-16T09:51:30;4.77;;;2.60;;
14205;SDS011;7186;48.800;9.216;2022-10-16T09:53:59;1.90;;;1.80;;
14205;SDS011;7186;48.800;9.216;2022-10-16T09:56:32;5.23;;;1.97;;
14205;SDS011;7186;48.800;9.216;2022-10-16T09:58:59;4.77;;;1.80;;
14205;SDS011;7186;48.800;9.216;2022-10-16T10:01:30;3.57;;;1.80;;
14205;SDS011;7186;48.800;9.216;2022-10-16T10:03:56;3.67;;;1.80;;
14205;SDS011;7186;48.800;9.216;2022-10-16T10:06:27;2.53;;;1.70;;
14205;SDS011;7186;48.800;9.216;2022-10-16T10:09:02;3.07;;;1.77;;
14205;SDS011;7186;48.800;9.216;2022-10-16T10:11:38;2.27;;;1.90;;
14205;SDS011;7186;48.800;9.216;2022-10-16T10:14:04;5.00;;;1.73;;
14205;SDS011;7186;48.800;9.216;2022-10-16T10:16:30;5.60;;;2.03;;
14205;SDS011;7186;48.800;9.216;2022-10-16T10:18:59;6.00;;;1.80;;
14205;SDS011;7186;48.800;9.216;2022-10-16T10:21:24;2.13;;;1.93;;
14205;SDS011;7186;48.800;9.216;2022-10-16T10:23:55;3.80;;;2.07;;
14205;SDS011;7186;48.800;9.216;2022-10-16T10:26:23;3.73;;;1.80;;
14205;SDS011;7186;48.800;9.216;2022-10-16T10:29:25;3.97;;;1.80;;
14205;SDS011;7186;48.800;9.216;2022-10-16T10:31:56;3.30;;;2.00;;
14205;SDS011;7186;48.800;9.216;2022-10-16T10:36:53;1.97;;;1.70;;
14205;SDS011;7186;48.800;9.216;2022-10-16T10:39:25;2.43;;;1.70;;
14205;SDS011;7186;48.800;9.216;2022-10-16T10:42:05;2.00;;;1.80;;
14205;SDS011;7186;48.800;9.216;2022-10-16T10:49:42;5.40;;;2.10;;
14205;SDS011;7186;48.800;9.216;2022-10-16T10:57:48;1.90;;;1.70;;
14205;SDS011;7186;48.800;9.216;2022-10-16T11:05:46;3.07;;;1.53;;
14205;SDS011;7186;48.800;9.216;2022-10-16T11:10:59;3.47;;;1.83;;
14205;SDS011;7186;48.800;9.216;2022-10-16T11:16:01;2.17;;;1.97;;
14205;SDS011;7186;48.800;9.216;2022-10-16T11:21:16;2.60;;;1.97;;
14205;SDS011;7186;48.800;9.216;2022-10-16T11:23:46;2.57;;;1.67;;
14205;SDS011;7186;48.800;9.216;2022-10-16T11:26:20;1.63;;;1.53;;
14205;SDS011;7186;48.800;9.216;2022-10-16T11:28:49;2.50;;;1.60;;
14205;SDS011;7186;48.800;9.216;2022-10-16T11:34:06;2.23;;;1.80;;
14205;SDS011;7186;48.800;9.216;2022-10-16T11:36:48;3.40;;;1.60;;
14205;SDS011;7186;48.800;9.216;2022-10-16T11:39:20;3.00;;;1.70;;
14205;SDS011;7186;48.800;9.216;2022-10-16T11:41:49;2.97;;;1.80;;
14205;SDS011;7186;48.800;9.216;2022-10-16T11:46:58;4.17;;;1.80;;
14205;SDS011;7186;48.800;9.216;2022-10-16T11:49:26;4.70;;;1.87;;
14205;SDS011;7186;48.800;9.216;2022-10-16T11:56:55;2.83;;;1.70;;
14205;SDS011;7186;48.800;9.216;2022-10-16T11:59:25;2.00;;;1.53;;
14205;SDS011;7186;48.800;9.216;2022-10-16T12:01:54;1.57;;;1.47;;
14205;SDS011;7186;48.800;9.216;2022-10-16T12:04:28;4.90;;;1.90;;
14205;SDS011;7186;48.800;9.216;2022-10-16T12:07:06;1.90;;;1.53;;
14205;SDS011;7186;48.800;9.216;2022-10-16T12:09:34;4.40;;;1.83;;
14205;SDS011;7186;48.800;9.216;2022-10-16T12:12:01;2.40;;;1.70;;
14205;SDS011;7186;48.800;9.216;2022-10-16T12:16:53;2.27;;;1.67;;
14205;SDS011;7186;48.800;9.216;2022-10-16T12:19:19;2.60;;;1.80;;
14205;SDS011;7186;48.800;9.216;2022-10-16T12:21:45;1.87;;;1.77;;
14205;SDS011;7186;48.800;9.216;2022-10-16T12:24:20;2.43;;;1.80;;
14205;SDS011;7186;48.800;9.216;2022-10-16T12:26:49;2.33;;;1.73;;
14205;SDS011;7186;48.800;9.216;2022-10-16T12:29:30;2.00;;;1.50;;
14205;SDS011;7186;48.800;9.216;2022-10-16T12:31:57;1.77;;;1.60;;
14205;SDS011;7186;48.800;9.216;2022-10-16T12:34:23;3.00;;;1.70;;
14205;SDS011;7186;48.800;9.216;2022-10-16T12:36:51;3.10;;;1.40;;
14205;SDS011;7186;48.800;9.216;2022-10-16T12:39:20;2.13;;;1.70;;
14205;SDS011;7186;48.800;9.216;2022-10-16T12:41:45;8.90;;;1.60;;
14205;SDS011;7186;48.800;9.216;2022-10-16T12:44:23;1.77;;;1.63;;
14205;SDS011;7186;48.800;9.216;2022-10-16T12:46:49;2.73;;;2.00;;
14205;SDS011;7186;48.800;9.216;2022-10-16T12:49:21;1.90;;;1.70;;
14205;SDS011;7186;48.800;9.216;2022-10-16T12:51:47;3.40;;;1.70;;
14205;SDS011;7186;48.800;9.216;2022-10-16T12:54:13;3.97;;;1.60;;
14205;SDS011;7186;48.800;9.216;2022-10-16T12:56:41;3.83;;;1.57;;
14205;SDS011;7186;48.800;9.216;2022-10-16T13:04:14;2.10;;;1.70;;
14205;SDS011;7186;48.800;9.216;2022-10-16T13:09:23;1.90;;;1.80;;
14205;SDS011;7186;48.800;9.216;2022-10-16T13:11:55;2.20;;;1.63;;
14205;SDS011;7186;48.800;9.216;2022-10-16T13:17:01;2.33;;;2.00;;
14205;SDS011;7186;48.800;9.216;2022-10-16T13:22:15;3.17;;;2.00;;
14205;SDS011;7186;48.800;9.216;2022-10-16T13:24:46;2.60;;;1.90;;
14205;SDS011;7186;48.800;9.216;2022-10-16T13:29:42;3.57;;;1.97;;
14205;SDS011;7186;48.800;9.216;2022-10-16T13:32:08;2.23;;;2.03;;
14205;SDS011;7186;48.800;9.216;2022-10-16T13:34:41;2.87;;;2.00;;
14205;SDS011;7186;48.800;9.216;2022-10-16T13:37:15;2.60;;;1.90;;
14205;SDS011;7186;48.800;9.216;2022-10-16T13:39:41;2.70;;;2.00;;
14205;SDS011;7186;48.800;9.216;2022-10-16T13:42:09;2.80;;;1.90;;
14205;SDS011;7186;48.800;9.216;2022-10-16T13:44:47;2.37;;;2.13;;
14205;SDS011;7186;48.800;9.216;2022-10-16T13:47:23;3.10;;;2.20;;
14205;SDS011;7186;48.800;9.216;2022-10-16T13:50:01;2.30;;;2.10;;
14205;SDS011;7186;48.800;9.216;2022-10-16T13:52:27;2.97;;;2.23;;
14205;SDS011;7186;48.800;9.216;2022-10-16T13:54:52;2.87;;;2.23;;
14205;SDS011;7186;48.800;9.216;2022-10-16T13:57:17;5.10;;;1.90;;
14205;SDS011;7186;48.800;9.216;2022-10-16T13:59:43;2.40;;;2.20;;
14205;SDS011;7186;48.800;9.216;2022-10-16T14:02:14;3.33;;;2.67;;
14205;SDS011;7186;48.800;9.216;2022-10-16T14:04:40;12.17;;;6.27;;
14205;SDS011;7186;48.800;9.216;2022-10-16T14:07:11;9.57;;;6.17;;
14205;SDS011;7186;48.800;9.216;2022-10-16T14:09:38;7.17;;;4.37;;
14205;SDS011;7186;48.800;9.216;2022-10-16T14:12:07;4.97;;;3.30;;
14205;SDS011;7186;48.800;9.216;2022-10-16T14:14:43;6.83;;;3.90;;
14205;SDS011;7186;48.800;9.216;2022-10-16T14:17:15;6.00;;;3.90;;
14205;SDS011;7186;48.800;9.216;2022-10-16T14:19:40;12.20;;;7.10;;
14205;SDS011;7186;48.800;9.216;2022-10-16T14:24:51;5.50;;;3.43;;
14205;SDS011;7186;48.800;9.216;2022-10-16T14:27:32;3.23;;;2.80;;
14205;SDS011;7186;48.800;9.216;2022-10-16T14:32:33;14.23;;;8.27;;
14205;SDS011;7186;48.800;9.216;2022-10-16T14:34:58;9.20;;;6.03;;
14205;SDS011;7186;48.800;9.216;2022-10-16T14:37:27;10.57;;;6.37;;
14205;SDS011;7186;48.800;9.216;2022-10-16T14:39:52;11.43;;;6.67;;
14205;SDS011;7186;48.800;9.216;2022-10-16T14:42:19;8.43;;;6.13;;
14205;SDS011;7186;48.800;9.216;2022-10-16T14:44:45;12.77;;;8.17;;
14205;SDS011;7186;48.800;9.216;2022-10-16T14:47:14;36.93;;;19.37;;
14205;SDS011;7186;48.800;9.216;2022-10-16T14:49:41;18.00;;;10.23;;
14205;SDS011;7186;48.800;9.216;2022-10-16T14:52:10;13.27;;;7.53;;
14205;SDS011;7186;48.800;9.216;2022-10-16T14:54:35;7.00;;;4.27;;
14205;SDS011;7186;48.800;9.216;2022-10-16T14:57:00;5.57;;;3.00;;
14205;SDS011;7186;48.800;9.216;2022-10-16T15:02:02;6.57;;;3.77;;
14205;SDS011;7186;48.800;9.216;2022-10-16T15:04:31;5.80;;;4.27;;
14205;SDS011;7186;48.800;9.216;2022-10-16T15:06:57;4.47;;;3.37;;
14205;SDS011;7186;48.800;9.216;2022-10-16T15:09:23;5.33;;;3.27;;
14205;SDS011;7186;48.800;9.216;2022-10-16T15:11:48;4.37;;;2.80;;
14205;SDS011;7186;48.800;9.216;2022-10-16T15:14:14;6.63;;;2.80;;
14205;SDS011;7186;48.800;9.216;2022-10-16T15:16:39;3.43;;;2.83;;
14205;SDS011;7186;48.800;9.216;2022-10-16T15:19:04;4.30;;;3.00;;
14205;SDS011;7186;48.800;9.216;2022-10-16T15:21:30;4.63;;;2.93;;
14205;SDS011;7186;48.800;9.216;2022-10-16T15:23:56;6.27;;;3.67;;
14205;SDS011;7186;48.800;9.216;2022-10-16T15:26:22;6.77;;;3.10;;
14205;SDS011;7186;48.800;9.216;2022-10-16T15:28:47;4.93;;;3.23;;
14205;SDS011;7186;48.800;9.216;2022-10-16T15:31:13;4.53;;;3.13;;
14205;SDS011;7186;48.800;9.216;2022-10-16T15:33:38;4.20;;;3.40;;
14205;SDS011;7186;48.800;9.216;2022-10-16T15:36:03;5.23;;;3.50;;
14205;SDS011;7186;48.800;9.216;2022-10-16T15:38:28;3.70;;;3.30;;
14205;SDS011;7186;48.800;9.216;2022-10-16T15:40:54;3.57;;;3.10;;
14205;SDS011;7186;48.800;9.216;2022-10-16T15:43:20;5.50;;;3.20;;
14205;SDS011;7186;48.800;9.216;2022-10-16T15:46:19;4.57;;;3.20;;
14205;SDS011;7186;48.800;9.216;2022-10-16T15:48:39;5.13;;;3.10;;
14205;SDS011;7186;48.800;9.216;2022-10-16T15:51:04;4.47;;;3.23;;
14205;SDS011;7186;48.800;9.216;2022-10-16T15:53:30;5.00;;;3.30;;
14205;SDS011;7186;48.800;9.216;2022-10-16T15:55:55;6.33;;;3.17;;
14205;SDS011;7186;48.800;9.216;2022-10-16T15:58:20;6.50;;;3.30;;
14205;SDS011;7186;48.800;9.216;2022-10-16T16:00:53;3.83;;;3.40;;
14205;SDS011;7186;48.800;9.216;2022-10-16T16:03:18;5.43;;;3.00;;
14205;SDS011;7186;48.800;9.216;2022-10-16T16:05:43;5.10;;;3.67;;
14205;SDS011;7186;48.800;9.216;2022-10-16T16:08:09;6.27;;;3.40;;
14205;SDS011;7186;48.800;9.216;2022-10-16T16:10:34;4.83;;;3.23;;
14205;SDS011;7186;48.800;9.216;2022-10-16T16:12:59;4.47;;;3.20;;
14205;SDS011;7186;48.800;9.216;2022-10-16T16:15:24;5.17;;;3.50;;
14205;SDS011;7186;48.800;9.216;2022-10-16T16:17:49;5.03;;;3.70;;
14205;SDS011;7186;48.800;9.216;2022-10-16T16:20:15;6.53;;;3.70;;
14205;SDS011;7186;48.800;9.216;2022-10-16T16:22:41;5.40;;;3.70;;
14205;SDS011;7186;48.800;9.216;2022-10-16T16:25:07;9.80;;;4.90;;
14205;SDS011;7186;48.800;9.216;2022-10-16T16:27:32;8.87;;;5.23;;